Time;durP1;ratioP1;P1;durP2;ratioP2;P2;SDS_P1;SDS_P2;PMS_P1;PMS_P2;Temp;Humidity;BMP_temperature;BMP_pressure;BME280_temperature;BME280_humidity;BME280_pressure;Samples;Min_cycle;Max_cycle;Signal;HPM_P1;HPM_P2
2021/10/04 00:01:28;;;;;;;3.55;3.25;;;;;;;19.15;65.79;95522.09;5046760;28;20225;-82
2021/10/04 00:03:55;;;;;;;3.22;2.92;;;;;;;19.03;65.91;95531.78;5054590;28;20556;-82
2021/10/04 00:06:21;;;;;;;3.35;2.83;;;;;;;18.93;66.39;95533.16;5053406;28;20204;-86
2021/10/04 00:08:48;;;;;;;2.92;2.72;;;;;;;19.02;65.48;95540.63;5053944;28;20225;-82
2021/10/04 00:11:16;;;;;;;3.30;3.00;;;;;;;19.10;65.71;95535.03;5053984;28;20217;-83
2021/10/04 00:13:42;;;;;;;3.00;2.80;;;;;;;19.14;65.54;95530.97;5039603;28;20206;-82
2021/10/04 00:16:09;;;;;;;3.28;2.97;;;;;;;19.15;65.36;95528.13;5033603;28;20684;-84
2021/10/04 00:18:35;;;;;;;3.45;3.15;;;;;;;19.12;65.66;95523.34;5033315;28;20202;-85
2021/10/04 00:21:05;;;;;;;3.28;2.97;;;;;;;19.05;66.02;95514.09;5034069;28;20218;-83
2021/10/04 00:23:31;;;;;;;3.33;3.03;;;;;;;18.95;66.81;95522.50;5047290;28;20197;-84
2021/10/04 00:25:58;;;;;;;4.07;2.83;;;;;;;18.94;66.65;95518.28;5053218;28;20205;-84
2021/10/04 00:28:25;;;;;;;3.38;2.88;;;;;;;19.07;66.23;95518.03;5052526;28;20225;-82
2021/10/04 00:30:52;;;;;;;2.83;2.63;;;;;;;19.19;65.36;95513.59;5051911;28;20232;-82
2021/10/04 00:33:18;;;;;;;5.53;2.90;;;;;;;19.24;65.05;95515.50;5052703;28;20198;-83
2021/10/04 00:35:45;;;;;;;2.97;2.78;;;;;;;19.30;64.92;95509.34;5051294;28;20244;-82
2021/10/04 00:38:11;;;;;;;2.72;2.53;;;;;;;19.32;64.70;95504.69;5051599;28;20221;-84
2021/10/04 00:40:38;;;;;;;3.08;2.78;;;;;;;19.32;64.98;95512.50;5051139;28;20217;-83
2021/10/04 00:43:05;;;;;;;3.22;2.92;;;;;;;19.28;65.08;95512.19;5051711;28;20229;-82
2021/10/04 00:45:33;;;;;;;4.50;2.80;;;;;;;19.29;64.95;95513.75;5050811;28;20221;-85
2021/10/04 00:48:00;;;;;;;2.97;2.60;;;;;;;19.28;65.22;95520.00;5051262;28;20305;-81
2021/10/04 00:50:28;;;;;;;2.97;2.70;;;;;;;19.35;64.53;95514.66;5054836;28;20237;-82
2021/10/04 00:52:55;;;;;;;2.95;2.60;;;;;;;19.38;64.64;95516.03;5055757;28;20204;-83
2021/10/04 00:55:28;;;;;;;2.70;2.50;;;;;;;19.36;64.92;95516.25;5055138;28;20205;-80
2021/10/04 00:57:56;;;;;;;2.75;2.55;;;;;;;19.38;64.96;95518.63;5055112;28;20640;-81
2021/10/04 01:00:26;;;;;;;2.60;2.40;;;;;;;19.39;64.51;95507.97;5055160;28;20214;-81
2021/10/04 01:02:55;;;;;;;2.58;2.38;;;;;;;19.37;64.76;95510.00;5055333;28;20574;-83
2021/10/04 01:05:21;;;;;;;2.70;2.50;;;;;;;19.43;64.39;95516.91;5054544;28;20288;-83
2021/10/04 01:07:48;;;;;;;3.00;2.60;;;;;;;19.47;64.29;95507.56;5054780;28;20209;-82
2021/10/04 01:10:15;;;;;;;4.00;2.58;;;;;;;19.47;64.00;95504.97;5054494;28;20233;-81
2021/10/04 01:12:44;;;;;;;2.60;2.40;;;;;;;19.33;64.72;95514.91;5048912;28;20660;-82
2021/10/04 01:15:12;;;;;;;2.75;2.55;;;;;;;19.29;64.40;95510.38;5054750;28;20190;-80
2021/10/04 01:17:39;;;;;;;3.00;2.70;;;;;;;19.32;64.76;95510.69;5055174;28;20205;-81
2021/10/04 01:20:10;;;;;;;4.25;2.80;;;;;;;19.26;65.22;95513.44;5055112;28;20271;-80
2021/10/04 01:22:37;;;;;;;2.78;2.58;;;;;;;19.23;64.81;95504.28;5055232;28;20202;-82
2021/10/04 01:25:05;;;;;;;2.75;2.55;;;;;;;19.14;65.39;95505.66;5055615;28;20802;-80
2021/10/04 01:27:31;;;;;;;2.60;2.40;;;;;;;19.10;65.22;95503.72;5054879;28;20194;-82
2021/10/04 01:29:58;;;;;;;2.90;2.70;;;;;;;18.94;66.30;95506.03;5034871;28;20230;-81
2021/10/04 01:32:25;;;;;;;2.50;2.30;;;;;;;18.91;66.46;95514.31;5034959;28;20217;-82
2021/10/04 01:34:54;;;;;;;2.67;2.47;;;;;;;18.95;66.28;95514.66;5034987;28;20209;-83
2021/10/04 01:37:22;;;;;;;2.85;2.45;;;;;;;19.00;65.98;95511.38;5034422;28;20221;-84
2021/10/04 01:39:49;;;;;;;3.17;2.47;;;;;;;18.98;65.65;95506.38;5034248;28;20205;-84
2021/10/04 01:42:16;;;;;;;2.63;2.42;;;;;;;18.84;66.93;95510.28;5034297;28;20220;-84
2021/10/04 01:44:42;;;;;;;2.80;2.60;;;;;;;18.86;66.38;95505.59;5033977;28;20233;-84
2021/10/04 01:47:09;;;;;;;2.67;2.47;;;;;;;18.83;66.17;95508.69;5034178;28;20202;-83
2021/10/04 01:49:35;;;;;;;3.92;2.47;;;;;;;18.88;66.03;95513.97;5034600;28;20229;-83
2021/10/04 01:52:02;;;;;;;2.60;2.40;;;;;;;18.86;66.77;95522.03;5033615;28;20238;-82
2021/10/04 01:54:29;;;;;;;2.60;2.40;;;;;;;18.88;66.66;95521.81;5033953;28;20198;-82
2021/10/04 01:56:56;;;;;;;4.03;2.63;;;;;;;18.83;66.72;95527.75;5034106;28;20205;-80
2021/10/04 01:59:22;;;;;;;4.57;3.10;;;;;;;18.89;66.99;95526.81;5034479;28;20217;-83
2021/10/04 02:01:49;;;;;;;2.60;2.40;;;;;;;18.87;67.29;95528.06;5049429;28;20221;-82
2021/10/04 02:04:15;;;;;;;2.80;2.50;;;;;;;18.87;66.73;95520.22;5054683;28;20205;-81
2021/10/04 02:06:42;;;;;;;2.80;2.60;;;;;;;18.74;67.87;95528.31;5053862;28;20217;-82
2021/10/04 02:09:08;;;;;;;3.15;2.72;;;;;;;18.66;68.41;95529.47;5054041;28;20232;-81
2021/10/04 02:11:36;;;;;;;2.97;2.58;;;;;;;18.74;67.52;95533.53;5053845;28;20224;-83
2021/10/04 02:14:02;;;;;;;2.83;2.63;;;;;;;18.69;67.98;95528.97;5054207;28;20206;-84
2021/10/04 02:16:29;;;;;;;2.97;2.53;;;;;;;18.66;67.96;95526.06;5053179;28;20216;-84
2021/10/04 02:18:55;;;;;;;3.78;2.85;;;;;;;18.61;68.65;95521.53;5053795;28;20197;-83
2021/10/04 02:21:22;;;;;;;3.25;2.95;;;;;;;18.47;69.00;95518.28;5050870;28;20229;-83
2021/10/04 02:23:48;;;;;;;4.82;3.08;;;;;;;18.42;69.17;95520.03;5053465;28;20550;-82
2021/10/04 02:26:15;;;;;;;2.78;2.58;;;;;;;18.36;69.69;95521.72;5053146;28;20664;-81
2021/10/04 02:28:43;;;;;;;2.63;2.42;;;;;;;18.39;68.66;95512.66;5043269;28;20267;-80
2021/10/04 02:31:09;;;;;;;2.70;2.50;;;;;;;18.35;68.17;95509.69;5033208;28;20229;-83
2021/10/04 02:33:35;;;;;;;2.75;2.55;;;;;;;18.35;68.31;95509.69;5033951;28;20588;-81
2021/10/04 02:36:02;;;;;;;2.58;2.38;;;;;;;18.42;67.57;95505.16;5033625;28;20202;-81
2021/10/04 02:38:28;;;;;;;2.25;2.15;;;;;;;18.42;66.98;95510.38;5033618;28;20225;-82
2021/10/04 02:40:55;;;;;;;2.28;2.03;;;;;;;18.32;66.41;95515.34;5033870;28;20244;-82
2021/10/04 02:43:22;;;;;;;2.00;1.90;;;;;;;18.30;66.27;95515.56;5034027;28;20292;-81
2021/10/04 02:45:51;;;;;;;2.20;2.00;;;;;;;18.38;65.73;95517.06;5033236;28;20233;-81
2021/10/04 02:48:18;;;;;;;1.73;1.63;;;;;;;18.32;66.13;95519.78;5033751;28;20632;-81
2021/10/04 02:50:45;;;;;;;1.85;1.73;;;;;;;18.29;65.89;95518.41;5033346;28;20222;-84
2021/10/04 02:53:12;;;;;;;1.90;1.80;;;;;;;18.33;66.06;95516.16;5033136;28;20566;-81
2021/10/04 02:55:38;;;;;;;2.25;1.90;;;;;;;18.30;65.60;95514.78;5033349;28;20719;-83
2021/10/04 02:58:05;;;;;;;2.45;1.77;;;;;;;18.26;65.24;95513.66;5036630;28;20201;-83
2021/10/04 03:00:33;;;;;;;1.95;1.85;;;;;;;18.24;65.44;95511.28;5052548;28;20224;-83
2021/10/04 03:03:01;;;;;;;1.80;1.70;;;;;;;18.14;65.73;95505.81;5044233;28;20206;-83
2021/10/04 03:05:31;;;;;;;2.33;2.13;;;;;;;18.03;65.86;95504.00;5052472;28;20213;-80
2021/10/04 03:07:58;;;;;;;1.80;1.70;;;;;;;17.88;65.53;95503.66;5052813;28;20212;-82
2021/10/04 03:10:25;;;;;;;3.15;1.70;;;;;;;18.04;65.55;95499.59;5050833;28;20748;-84
2021/10/04 03:12:52;;;;;;;3.00;1.60;;;;;;;17.99;65.02;95497.66;5031399;28;20212;-83
2021/10/04 03:15:18;;;;;;;1.50;1.40;;;;;;;17.97;64.86;95497.09;5033097;28;20202;-84
2021/10/04 03:17:45;;;;;;;1.52;1.42;;;;;;;18.02;64.00;95501.63;5053419;28;20204;-82
2021/10/04 03:20:12;;;;;;;1.50;1.40;;;;;;;18.01;64.56;95507.84;5054544;28;20221;-84
2021/10/04 03:22:39;;;;;;;1.42;1.33;;;;;;;18.09;63.93;95510.91;5055133;28;20683;-82
2021/10/04 03:25:07;;;;;;;1.60;1.35;;;;;;;18.19;63.62;95507.75;5054659;28;20208;-81
2021/10/04 03:27:33;;;;;;;1.50;1.23;;;;;;;18.29;63.57;95516.59;5054720;28;20202;-82
2021/10/04 03:30:00;;;;;;;1.40;1.30;;;;;;;18.25;63.19;95517.28;5054964;28;20240;-82
2021/10/04 03:32:27;;;;;;;1.60;1.50;;;;;;;18.19;62.88;95510.38;5054648;28;20213;-84
2021/10/04 03:34:53;;;;;;;1.30;1.20;;;;;;;18.06;63.38;95511.38;5054906;28;20232;-85
2021/10/04 03:37:23;;;;;;;1.52;1.40;;;;;;;17.98;63.14;95508.28;5042023;28;20198;-82
2021/10/04 03:39:50;;;;;;;1.70;1.60;;;;;;;17.98;63.03;95510.91;5034266;28;20198;-84
2021/10/04 03:42:16;;;;;;;1.58;1.48;;;;;;;17.97;63.28;95517.13;5036523;28;20205;-85
2021/10/04 03:44:43;;;;;;;1.25;1.17;;;;;;;18.00;63.01;95520.09;5053734;28;20228;-83
2021/10/04 03:47:09;;;;;;;1.40;1.30;;;;;;;17.92;63.32;95517.78;5041261;28;20201;-85
2021/10/04 03:49:36;;;;;;;1.40;1.30;;;;;;;17.92;63.09;95517.78;5053757;28;20228;-85
2021/10/04 03:52:03;;;;;;;1.60;1.50;;;;;;;18.04;62.98;95520.44;5046218;28;20280;-81
2021/10/04 03:54:31;;;;;;;2.50;1.50;;;;;;;17.99;62.67;95518.50;5055754;23;20233;-86
2021/10/04 03:56:57;;;;;;;1.33;1.23;;;;;;;17.81;62.90;95521.19;5030344;28;20202;-86
2021/10/04 03:59:24;;;;;;;1.70;1.30;;;;;;;17.84;63.18;95518.13;5031371;28;20212;-84
2021/10/04 04:01:50;;;;;;;1.25;1.10;;;;;;;17.80;63.02;95515.19;5033407;28;20312;-84
2021/10/04 04:04:17;;;;;;;1.73;1.63;;;;;;;17.82;63.11;95518.34;5033722;28;20218;-85
2021/10/04 04:06:43;;;;;;;1.40;1.30;;;;;;;17.81;62.79;95511.56;5032592;28;20202;-84
2021/10/04 04:09:10;;;;;;;1.48;1.38;;;;;;;17.90;62.46;95514.63;5034026;28;20229;-85
2021/10/04 04:11:38;;;;;;;1.42;1.33;;;;;;;17.88;63.14;95516.69;5032842;28;20205;-86
2021/10/04 04:14:04;;;;;;;1.45;1.33;;;;;;;17.86;62.59;95518.72;5033368;28;20229;-86
2021/10/04 04:16:31;;;;;;;2.38;1.60;;;;;;;17.79;62.74;95513.59;5033782;28;20206;-84
2021/10/04 04:18:58;;;;;;;1.90;1.30;;;;;;;17.76;63.01;95516.63;5033972;28;20209;-85
2021/10/04 04:21:24;;;;;;;1.23;1.17;;;;;;;17.79;63.28;95528.41;5033843;28;20206;-85
2021/10/04 04:23:51;;;;;;;2.42;1.20;;;;;;;17.87;62.77;95518.47;5024487;28;20234;-85
2021/10/04 04:26:17;;;;;;;1.40;1.30;;;;;;;17.88;62.72;95527.09;5017540;28;20202;-82
2021/10/04 04:28:45;;;;;;;1.63;1.23;;;;;;;17.82;63.04;95535.78;5021367;28;20578;-86
2021/10/04 04:31:12;;;;;;;1.30;1.20;;;;;;;17.84;63.02;95541.56;5018577;28;20227;-85
2021/10/04 04:33:39;;;;;;;1.15;1.08;;;;;;;17.87;62.51;95541.13;5018650;28;20230;-84
2021/10/04 04:36:05;;;;;;;1.20;1.20;;;;;;;17.87;62.32;95536.72;5018423;28;20222;-85
2021/10/04 04:38:32;;;;;;;1.50;1.00;;;;;;;17.90;61.92;95536.25;5046581;28;20197;-84
2021/10/04 04:40:58;;;;;;;1.73;1.20;;;;;;;17.83;62.05;95538.19;5044834;28;20198;-83
2021/10/04 04:43:25;;;;;;;2.22;1.27;;;;;;;17.90;61.96;95533.66;5033686;28;20218;-81
2021/10/04 04:45:53;;;;;;;1.77;1.30;;;;;;;17.93;61.60;95537.63;5033863;28;20826;-82
2021/10/04 04:48:19;;;;;;;1.23;1.13;;;;;;;17.91;61.96;95550.06;5035056;28;20677;-81
2021/10/04 04:50:46;;;;;;;1.50;1.38;;;;;;;17.90;62.08;95545.88;5036488;28;20229;-81
2021/10/04 04:53:12;;;;;;;1.20;1.10;;;;;;;17.89;62.26;95552.94;5036004;28;20261;-82
2021/10/04 04:55:39;;;;;;;1.30;1.20;;;;;;;17.85;61.89;95546.56;5035387;28;20213;-82
2021/10/04 04:58:06;;;;;;;1.27;1.17;;;;;;;17.86;62.04;95544.75;5035765;28;20202;-81
2021/10/04 05:00:33;;;;;;;1.40;1.20;;;;;;;17.93;61.84;95540.22;5035699;28;20236;-81
2021/10/04 05:03:01;;;;;;;1.15;1.02;;;;;;;17.91;62.04;95534.44;5036381;28;20672;-85
2021/10/04 05:05:27;;;;;;;1.40;1.30;;;;;;;17.84;61.97;95536.38;5036204;28;20205;-85
2021/10/04 05:07:54;;;;;;;1.45;1.35;;;;;;;17.81;61.68;95536.81;5036867;28;20206;-86
2021/10/04 05:10:20;;;;;;;2.38;1.33;;;;;;;17.76;62.18;95536.66;5036506;28;20735;-86
2021/10/04 05:12:47;;;;;;;1.23;1.17;;;;;;;17.81;62.24;95532.38;5032636;28;20214;-84
2021/10/04 05:15:13;;;;;;;1.13;1.10;;;;;;;17.78;62.06;95539.84;5036465;28;20229;-85
2021/10/04 05:17:41;;;;;;;1.48;1.38;;;;;;;17.72;62.33;95538.91;5036924;28;20201;-84
2021/10/04 05:20:11;;;;;;;2.17;1.30;;;;;;;17.69;62.65;95544.59;5037353;28;20681;-84
2021/10/04 05:22:38;;;;;;;1.50;1.40;;;;;;;17.59;62.36;95552.88;5037016;28;20198;-84
2021/10/04 05:25:06;;;;;;;1.65;1.50;;;;;;;17.57;62.79;95552.31;5036868;28;20226;-86
2021/10/04 05:27:33;;;;;;;2.03;1.45;;;;;;;17.65;63.12;95556.47;5036856;28;20237;-84
2021/10/04 05:29:59;;;;;;;2.17;1.63;;;;;;;17.55;65.05;95561.34;5036920;28;20222;-84
2021/10/04 05:32:26;;;;;;;2.30;1.13;;;;;;;17.48;64.27;95550.25;5036019;28;20209;-86
2021/10/04 05:34:52;;;;;;;2.40;1.42;;;;;;;17.41;64.25;95552.13;5035981;28;20224;-85
2021/10/04 05:37:20;;;;;;;2.67;1.20;;;;;;;17.36;64.99;95560.59;5035508;28;20229;-85
2021/10/04 05:39:47;;;;;;;5.18;4.00;;;;;;;17.42;64.13;95558.94;5036776;28;20198;-84
2021/10/04 05:42:13;;;;;;;3.58;3.28;;;;;;;17.49;64.02;95570.84;5034020;28;20228;-85
2021/10/04 05:44:40;;;;;;;3.70;1.80;;;;;;;17.64;63.68;95572.28;5046726;28;20680;-84
2021/10/04 05:47:12;;;;;;;2.25;1.50;;;;;;;17.60;63.60;95577.91;5056116;28;20206;-85
2021/10/04 05:49:40;;;;;;;2.00;1.40;;;;;;;17.67;63.57;95577.06;5057092;28;20221;-86
2021/10/04 05:52:07;;;;;;;1.42;1.33;;;;;;;17.59;63.74;95586.75;5056581;28;20212;-84
2021/10/04 05:54:35;;;;;;;3.03;1.30;;;;;;;17.64;63.70;95582.69;5039341;28;20244;-85
2021/10/04 05:57:04;;;;;;;1.42;1.33;;;;;;;17.73;63.51;95582.19;5036462;28;20210;-86
2021/10/04 05:59:33;;;;;;;2.05;1.50;;;;;;;17.64;64.41;95583.50;5035984;28;20209;-83
2021/10/04 06:01:59;;;;;;;1.60;1.40;;;;;;;17.64;64.39;95582.69;5036052;28;20206;-86
2021/10/04 06:04:26;;;;;;;1.50;1.40;;;;;;;17.59;64.91;95578.94;5035487;28;20313;-85
2021/10/04 06:06:52;;;;;;;1.35;1.25;;;;;;;17.69;63.98;95578.44;5035697;28;20661;-85
2021/10/04 06:09:19;;;;;;;1.92;1.38;;;;;;;17.71;64.11;95586.81;5036048;28;20206;-85
2021/10/04 06:11:49;;;;;;;1.38;1.27;;;;;;;17.80;63.95;95582.09;5030049;28;20221;-85
2021/10/04 06:14:15;;;;;;;2.38;1.50;;;;;;;17.80;63.60;95585.50;5036158;28;20233;-84
2021/10/04 06:16:42;;;;;;;2.88;1.40;;;;;;;17.80;63.76;95592.50;5035732;28;20205;-85
2021/10/04 06:19:19;;;;;;;2.10;1.90;;;;;;;17.93;62.75;95595.72;5035958;28;20206;-83
2021/10/04 06:21:45;;;;;;;32.25;28.90;;;;;;;18.19;62.49;95601.59;5035427;28;20866;-84
2021/10/04 06:24:12;;;;;;;5.30;4.80;;;;;;;18.51;61.53;95597.66;5035759;28;20238;-85
2021/10/04 06:26:38;;;;;;;2.40;2.20;;;;;;;18.65;60.75;95594.88;5035157;28;20305;-85
2021/10/04 06:29:06;;;;;;;2.05;1.33;;;;;;;18.66;60.72;95599.09;5035513;28;20691;-84
2021/10/04 06:31:33;;;;;;;1.52;1.40;;;;;;;18.76;60.19;95607.13;5035438;28;20229;-85
2021/10/04 06:33:59;;;;;;;1.90;1.60;;;;;;;18.56;60.53;95610.03;5035307;28;20229;-83
2021/10/04 06:36:26;;;;;;;2.47;1.58;;;;;;;18.49;60.53;95609.34;5035524;28;20205;-86
2021/10/04 06:38:52;;;;;;;1.45;1.30;;;;;;;18.48;60.96;95605.94;5034773;28;20209;-85
2021/10/04 06:41:19;;;;;;;1.70;1.60;;;;;;;18.33;60.76;95620.41;5035499;28;20203;-85
2021/10/04 06:43:45;;;;;;;2.55;1.83;;;;;;;18.19;61.48;95619.81;5036022;28;20237;-85
2021/10/04 06:46:13;;;;;;;3.60;1.77;;;;;;;18.17;61.89;95627.06;5055038;28;20201;-84
2021/10/04 06:48:40;;;;;;;3.47;1.60;;;;;;;18.17;62.35;95630.47;5054921;28;20201;-84
2021/10/04 06:51:07;;;;;;;2.00;1.30;;;;;;;18.13;62.60;95626.72;5037951;28;20222;-84
2021/10/04 06:53:34;;;;;;;2.13;1.40;;;;;;;18.16;61.83;95625.47;5034102;28;20655;-84
2021/10/04 06:56:01;;;;;;;2.45;1.45;;;;;;;18.26;61.76;95617.94;5034821;28;20229;-85
2021/10/04 06:58:27;;;;;;;1.58;1.33;;;;;;;18.33;61.86;95633.44;5034911;28;20807;-84
2021/10/04 07:00:54;;;;;;;1.77;1.48;;;;;;;18.43;61.79;95626.69;5035333;28;20205;-84
2021/10/04 07:03:22;;;;;;;1.50;1.40;;;;;;;18.55;62.06;95627.50;5035736;28;20226;-86
2021/10/04 07:05:49;;;;;;;2.38;1.45;;;;;;;18.53;62.13;95629.53;5034969;28;20202;-85
2021/10/04 07:08:17;;;;;;;1.67;1.45;;;;;;;18.56;62.17;95630.88;5034770;28;20205;-84
2021/10/04 07:10:44;;;;;;;1.50;1.40;;;;;;;18.63;61.25;95632.41;5028562;28;20884;-83
2021/10/04 07:13:11;;;;;;;3.35;1.50;;;;;;;18.60;61.45;95626.84;5014641;28;20207;-84
2021/10/04 07:15:37;;;;;;;1.50;1.40;;;;;;;18.78;61.09;95642.41;5015735;28;20277;-85
2021/10/04 07:18:03;;;;;;;2.35;1.50;;;;;;;18.91;60.87;95646.59;5022977;28;20213;-85
2021/10/04 07:20:31;;;;;;;1.77;1.52;;;;;;;18.96;60.35;95652.72;5034428;28;20202;-84
2021/10/04 07:22:59;;;;;;;2.17;1.60;;;;;;;19.10;59.72;95655.09;5034341;28;20214;-84
2021/10/04 07:25:26;;;;;;;1.95;1.38;;;;;;;19.41;59.60;95653.97;5032912;28;20844;-84
2021/10/04 07:27:52;;;;;;;4.10;1.45;;;;;;;19.73;58.77;95651.75;5029876;28;20545;-84
2021/10/04 07:30:19;;;;;;;16.98;15.38;;;;;;;19.66;58.09;95657.09;5033115;28;20244;-84
2021/10/04 07:32:46;;;;;;;6.50;5.95;;;;;;;19.55;58.96;95661.34;5034282;28;20237;-83
2021/10/04 07:35:13;;;;;;;1.90;1.80;;;;;;;19.42;59.18;95658.94;5034026;28;20229;-85
2021/10/04 07:37:41;;;;;;;1.65;1.55;;;;;;;19.33;59.35;95660.31;5034574;28;20202;-83
2021/10/04 07:40:09;;;;;;;1.92;1.73;;;;;;;19.24;59.75;95672.16;5033326;28;20206;-87
2021/10/04 07:42:36;;;;;;;1.65;1.55;;;;;;;19.04;60.18;95669.09;5033652;28;20206;-86
2021/10/04 07:45:03;;;;;;;1.70;1.60;;;;;;;18.88;60.55;95666.09;5033202;28;20234;-84
2021/10/04 07:47:30;;;;;;;2.00;1.70;;;;;;;18.85;60.93;95673.63;5034301;28;20320;-85
2021/10/04 07:49:56;;;;;;;1.40;1.30;;;;;;;18.80;61.25;95678.69;5034498;28;20202;-85
2021/10/04 07:52:23;;;;;;;1.50;1.40;;;;;;;18.80;60.93;95681.31;5034270;28;20210;-85
2021/10/04 07:54:51;;;;;;;1.90;1.40;;;;;;;18.78;61.49;95693.78;5034364;28;20232;-87
2021/10/04 07:57:17;;;;;;;1.40;1.30;;;;;;;18.75;61.36;95691.63;5034105;28;20194;-85
2021/10/04 07:59:44;;;;;;;2.47;1.88;;;;;;;18.63;61.92;95694.22;5033946;28;20208;-86
2021/10/04 08:02:11;;;;;;;3.55;2.63;;;;;;;18.57;62.51;95701.09;5035965;28;20201;-86
2021/10/04 08:04:38;;;;;;;1.55;1.45;;;;;;;18.42;62.83;95705.13;5034490;28;20222;-85
2021/10/04 08:07:05;;;;;;;1.60;1.50;;;;;;;18.43;63.05;95702.31;5033921;28;20265;-84
2021/10/04 08:09:31;;;;;;;1.90;1.70;;;;;;;18.50;62.83;95710.81;5033433;28;20258;-85
2021/10/04 08:11:59;;;;;;;1.40;1.30;;;;;;;18.57;63.58;95708.09;5017307;28;20218;-82
2021/10/04 08:14:26;;;;;;;1.50;1.40;;;;;;;18.44;63.11;95718.75;5014288;28;20234;-82
2021/10/04 08:16:52;;;;;;;4.35;1.50;;;;;;;18.40;63.37;95715.78;5019890;28;20206;-81
2021/10/04 08:19:19;;;;;;;2.85;1.48;;;;;;;18.34;64.39;95715.84;5034792;28;20201;-82
2021/10/04 08:21:45;;;;;;;1.63;1.52;;;;;;;18.33;64.39;95717.66;5034042;28;20202;-83
2021/10/04 08:24:12;;;;;;;1.55;1.45;;;;;;;18.21;63.65;95711.63;5034489;28;20229;-85
2021/10/04 08:26:38;;;;;;;1.60;1.40;;;;;;;18.19;64.32;95718.88;5033674;28;20198;-84
2021/10/04 08:29:06;;;;;;;1.40;1.30;;;;;;;18.15;63.57;95723.72;5021560;28;20206;-85
2021/10/04 08:31:33;;;;;;;2.08;1.52;;;;;;;18.17;63.98;95723.50;5014206;28;20234;-84
2021/10/04 08:34:01;;;;;;;1.40;1.30;;;;;;;18.17;64.11;95716.47;5017009;28;20219;-85
2021/10/04 08:36:28;;;;;;;1.88;1.60;;;;;;;18.17;64.77;95720.91;5034472;28;20218;-85
2021/10/04 08:38:55;;;;;;;2.88;1.52;;;;;;;18.15;64.96;95725.53;5033790;28;20206;-84
2021/10/04 08:41:22;;;;;;;4.88;1.60;;;;;;;18.14;64.77;95724.72;5033486;28;20198;-84
2021/10/04 08:43:51;;;;;;;3.28;1.38;;;;;;;18.08;64.89;95724.84;5033230;28;20240;-87
2021/10/04 08:46:21;;;;;;;1.40;1.30;;;;;;;18.03;65.08;95728.09;5033475;28;20202;-85
2021/10/04 08:48:48;;;;;;;2.53;1.30;;;;;;;17.95;65.55;95744.00;5033876;28;20209;-85
2021/10/04 08:51:16;;;;;;;5.43;4.93;;;;;;;18.00;64.70;95744.16;5033753;28;20229;-84
2021/10/04 08:53:44;;;;;;;3.47;2.70;;;;;;;17.98;64.90;95742.78;5033670;28;20737;-85
2021/10/04 08:56:11;;;;;;;3.13;1.83;;;;;;;17.86;65.08;95743.53;5032962;28;20289;-85
2021/10/04 08:58:37;;;;;;;9.63;1.58;;;;;;;17.87;64.81;95744.31;5033546;28;20202;-85
2021/10/04 09:01:04;;;;;;;2.55;1.20;;;;;;;17.77;65.78;95742.19;5032980;28;20425;-85
2021/10/04 09:03:44;;;;;;;2.30;1.50;;;;;;;17.82;65.11;95741.56;5034744;28;20229;-86
2021/10/04 09:06:23;;;;;;;2.70;1.30;;;;;;;17.81;65.14;95745.19;5032960;28;20673;-86
2021/10/04 09:08:54;;;;;;;1.75;1.45;;;;;;;17.80;65.49;95751.41;5034047;28;20198;-86
2021/10/04 09:11:39;;;;;;;1.80;1.27;;;;;;;17.75;66.23;95748.63;5036468;28;20227;-84
2021/10/04 09:14:09;;;;;;;1.15;1.13;;;;;;;17.73;66.07;95753.25;5036550;28;20313;-84
2021/10/04 09:16:53;;;;;;;1.77;1.40;;;;;;;17.76;65.11;95756.25;5035455;28;20229;-84
2021/10/04 09:19:23;;;;;;;1.48;1.30;;;;;;;17.71;66.07;95758.69;5036832;28;20669;-84
2021/10/04 09:22:16;;;;;;;1.50;1.40;;;;;;;17.73;65.19;95768.88;5035614;28;20608;-84
2021/10/04 09:25:00;;;;;;;2.13;1.50;;;;;;;17.82;64.83;95765.81;5034603;28;20226;-84
2021/10/04 09:27:28;;;;;;;2.72;1.60;;;;;;;17.69;64.89;95767.75;5035140;28;20611;-84
2021/10/04 09:29:55;;;;;;;4.20;2.15;;;;;;;17.62;65.74;95780.81;5016007;28;20209;-85
2021/10/04 09:32:24;;;;;;;3.22;1.75;;;;;;;17.66;65.98;95774.19;5015882;28;20226;-84
2021/10/04 09:34:52;;;;;;;1.63;1.50;;;;;;;17.73;65.59;95782.72;5016315;28;20237;-83
2021/10/04 09:37:25;;;;;;;2.92;1.85;;;;;;;17.81;65.90;95787.66;5015747;28;20203;-84
2021/10/04 09:39:51;;;;;;;2.70;1.58;;;;;;;17.66;66.49;95792.41;5017519;28;20584;-85
2021/10/04 09:42:19;;;;;;;2.83;1.58;;;;;;;17.73;65.05;95787.91;5033187;28;20209;-85
2021/10/04 09:44:52;;;;;;;2.72;1.20;;;;;;;17.71;64.99;95792.53;5031348;28;20230;-86
2021/10/04 09:47:21;;;;;;;1.42;1.30;;;;;;;17.71;65.39;95792.53;5035772;28;20237;-85
2021/10/04 09:49:49;;;;;;;1.90;1.50;;;;;;;17.68;65.89;95798.22;5036300;28;20316;-84
2021/10/04 09:52:17;;;;;;;19.83;17.77;;;;;;;17.72;65.60;95796.75;5035417;28;20228;-87
2021/10/04 09:54:45;;;;;;;3.17;2.88;;;;;;;17.77;64.70;95796.09;5052402;22;20237;-82
2021/10/04 09:57:24;;;;;;;3.22;2.92;;;;;;;17.79;65.22;95796.69;5013657;28;20199;-82
2021/10/04 09:59:51;;;;;;;1.65;1.55;;;;;;;17.80;64.15;95790.47;5014461;28;20210;-84
2021/10/04 10:02:20;;;;;;;2.50;2.25;;;;;;;17.69;65.95;95805.00;5013757;28;20199;-83
2021/10/04 10:04:50;;;;;;;3.13;1.88;;;;;;;17.70;65.32;95801.41;5013727;28;20262;-83
2021/10/04 10:07:19;;;;;;;1.63;1.30;;;;;;;17.75;65.01;95808.53;5013811;28;20202;-81
2021/10/04 10:09:45;;;;;;;1.30;1.20;;;;;;;17.85;64.37;95801.84;5014498;28;20640;-83
2021/10/04 10:12:14;;;;;;;1.45;1.35;;;;;;;17.82;64.60;95797.06;5014104;28;20245;-82
2021/10/04 10:14:42;;;;;;;1.75;1.30;;;;;;;17.86;64.50;95800.03;5013883;28;20218;-82
2021/10/04 10:17:16;;;;;;;1.38;1.27;;;;;;;17.82;64.35;95798.88;5013389;28;20203;-82
2021/10/04 10:19:44;;;;;;;1.17;1.08;;;;;;;17.85;64.51;95795.84;5013911;28;20198;-81
2021/10/04 10:22:13;;;;;;;1.38;1.27;;;;;;;17.81;64.93;95803.28;5013014;28;20203;-84
2021/10/04 10:24:41;;;;;;;1.63;1.10;;;;;;;17.87;64.22;95812.03;5014334;28;20230;-82
2021/10/04 10:27:08;;;;;;;2.05;1.45;;;;;;;17.87;63.56;95806.84;5013495;28;20215;-82
2021/10/04 10:29:35;;;;;;;1.70;1.35;;;;;;;17.83;64.37;95814.28;5014318;28;20195;-84
2021/10/04 10:32:23;;;;;;;1.38;1.17;;;;;;;17.80;64.27;95811.31;5013657;28;20225;-82
2021/10/04 10:34:54;;;;;;;2.45;2.25;;;;;;;17.82;63.87;95806.69;5013741;28;20222;-84
2021/10/04 10:37:24;;;;;;;4.30;3.63;;;;;;;17.77;64.52;95812.53;5012949;28;20215;-82
2021/10/04 10:39:54;;;;;;;3.15;2.85;;;;;;;17.82;64.13;95812.69;5013196;28;20570;-83
2021/10/04 10:42:26;;;;;;;1.67;1.52;;;;;;;17.90;64.03;95806.38;5013345;28;20688;-83
2021/10/04 10:45:20;;;;;;;1.75;1.42;;;;;;;17.84;63.93;95810.66;5012808;28;20239;-82
2021/10/04 10:47:57;;;;;;;1.52;1.20;;;;;;;17.85;63.66;95814.88;5013676;28;20646;-83
2021/10/04 10:50:29;;;;;;;1.10;1.10;;;;;;;17.86;64.23;95815.66;5013668;28;20228;-84
2021/10/04 10:53:05;;;;;;;2.05;1.33;;;;;;;17.86;63.74;95818.25;5013614;28;20227;-83
2021/10/04 10:55:36;;;;;;;1.20;1.10;;;;;;;17.70;64.41;95821.44;5013110;28;20226;-83
2021/10/04 10:58:09;;;;;;;3.47;1.40;;;;;;;17.79;64.55;95825.34;5013345;28;20203;-83
2021/10/04 11:00:37;;;;;;;1.38;0.98;;;;;;;17.72;64.65;95822.00;5013311;28;20706;-83
2021/10/04 11:03:07;;;;;;;3.10;1.30;;;;;;;17.69;64.71;95825.06;5013380;28;20201;-82
2021/10/04 11:06:03;;;;;;;1.15;1.05;;;;;;;17.56;65.32;95831.91;5013325;28;20223;-83
2021/10/04 11:08:59;;;;;;;1.33;1.23;;;;;;;17.63;64.92;95831.88;5013457;28;20684;-84
2021/10/04 11:11:28;;;;;;;1.30;1.20;;;;;;;17.69;64.65;95838.06;5013338;28;20253;-83
2021/10/04 11:14:07;;;;;;;1.20;1.10;;;;;;;17.75;64.59;95835.38;5012792;28;20720;-84
2021/10/04 11:16:57;;;;;;;1.95;1.40;;;;;;;17.73;64.68;95842.63;5013111;28;20219;-82
2021/10/04 11:19:27;;;;;;;3.58;2.03;;;;;;;17.73;64.58;95841.81;5012951;28;20199;-81
2021/10/04 11:21:54;;;;;;;1.60;1.50;;;;;;;17.67;64.60;95840.09;5012800;28;20224;-82
2021/10/04 11:24:22;;;;;;;1.55;1.45;;;;;;;17.66;64.65;95834.09;5012671;28;20214;-82
2021/10/04 11:26:50;;;;;;;3.53;1.20;;;;;;;17.56;64.76;95831.13;5012320;28;20201;-84
2021/10/04 11:29:21;;;;;;;3.17;1.25;;;;;;;17.59;64.45;95834.09;5012517;28;20205;-83
2021/10/04 11:31:48;;;;;;;1.20;1.10;;;;;;;17.52;65.56;95833.34;5012148;28;20222;-83
2021/10/04 11:34:17;;;;;;;1.27;1.17;;;;;;;17.56;65.09;95834.53;5011778;28;20203;-83
2021/10/04 11:36:46;;;;;;;3.80;1.10;;;;;;;17.49;65.50;95839.00;5012605;28;20233;-82
2021/10/04 11:39:15;;;;;;;1.00;0.90;;;;;;;17.55;65.15;95848.56;5013040;28;20578;-81